Time;durP1;ratioP1;P1;durP2;ratioP2;P2;SDS_P1;SDS_P2;PMS_P1;PMS_P2;Temp;Humidity;BMP_temperature;BMP_pressure;BME280_temperature;BME280_humidity;BME280_pressure;Samples;Min_cycle;Max_cycle;Signal;HPM_P1;HPM_P2
2020/12/26 00:02:24;;;;;;;5.62;5.12;;;;;;;-0.36;100.00;98993.05;1787127;80;21287;-71
2020/12/26 00:04:52;;;;;;;4.25;3.95;;;;;;;-0.37;100.00;98992.72;1787026;80;21000;-70
2020/12/26 00:07:21;;;;;;;4.28;3.98;;;;;;;-0.40;100.00;98991.28;1787127;80;20921;-70
2020/12/26 00:09:51;;;;;;;5.15;4.70;;;;;;;-0.43;100.00;98985.09;1786905;80;20929;-70
2020/12/26 00:12:19;;;;;;;4.60;4.20;;;;;;;-0.46;100.00;99003.44;1787132;80;22212;-71
2020/12/26 00:14:47;;;;;;;4.75;4.22;;;;;;;-0.49;100.00;99006.48;1787019;80;21264;-71
2020/12/26 00:17:15;;;;;;;4.30;4.00;;;;;;;-0.49;100.00;99006.48;1786980;80;21052;-70
2020/12/26 00:19:46;;;;;;;4.65;4.20;;;;;;;-0.48;100.00;99005.97;1757135;80;20992;-70
2020/12/26 00:22:14;;;;;;;4.50;4.20;;;;;;;-0.48;100.00;99013.88;1786911;80;21565;-70
2020/12/26 00:24:42;;;;;;;4.87;4.20;;;;;;;-0.48;100.00;99022.59;1787033;80;21040;-70
2020/12/26 00:27:11;;;;;;;4.50;4.10;;;;;;;-0.48;100.00;99019.15;1787038;80;21201;-70
2020/12/26 00:29:43;;;;;;;4.25;3.83;;;;;;;-0.50;100.00;99012.73;1756649;80;20958;-70
2020/12/26 00:32:11;;;;;;;3.98;3.67;;;;;;;-0.52;100.00;99013.44;1786936;80;21087;-71
2020/12/26 00:34:40;;;;;;;4.42;4.08;;;;;;;-0.52;100.00;99025.81;1787086;80;21071;-70
2020/12/26 00:37:08;;;;;;;4.42;4.03;;;;;;;-0.53;100.00;99025.51;1790097;80;21545;-70
2020/12/26 00:39:37;;;;;;;3.90;3.60;;;;;;;-0.54;100.00;99015.95;1792491;80;22175;-70
2020/12/26 00:42:06;;;;;;;4.15;3.85;;;;;;;-0.55;100.00;99019.10;1764397;80;21020;-71
2020/12/26 00:44:36;;;;;;;4.35;4.05;;;;;;;-0.55;100.00;99019.10;1792514;80;21150;-70
2020/12/26 00:47:04;;;;;;;4.00;3.60;;;;;;;-0.52;100.00;99023.17;1792437;80;21039;-71
2020/12/26 00:49:34;;;;;;;4.72;4.40;;;;;;;-0.53;100.00;99023.69;1791183;80;21581;-71
2020/12/26 00:52:04;;;;;;;4.05;3.75;;;;;;;-0.53;100.00;99019.73;1792548;80;21562;-70
2020/12/26 00:54:33;;;;;;;4.50;4.10;;;;;;;-0.53;100.00;99017.09;1792296;80;21130;-70
2020/12/26 00:57:01;;;;;;;4.00;3.70;;;;;;;-0.51;100.00;99012.44;1764362;80;21062;-70
2020/12/26 00:59:30;;;;;;;4.58;4.17;;;;;;;-0.46;100.00;99011.86;1764021;80;21055;-70
2020/12/26 01:01:59;;;;;;;4.45;4.05;;;;;;;-0.48;100.00;99004.64;1792631;80;21043;-71
2020/12/26 01:04:29;;;;;;;4.20;3.75;;;;;;;-0.48;100.00;99005.97;1791283;80;22125;-71
2020/12/26 01:06:58;;;;;;;4.40;4.00;;;;;;;-0.48;100.00;99008.60;1764281;80;20925;-72
2020/12/26 01:09:26;;;;;;;4.55;4.25;;;;;;;-0.46;100.00;99011.86;1792464;80;21023;-71
2020/12/26 01:11:55;;;;;;;4.33;4.03;;;;;;;-0.44;100.00;99021.20;1792424;80;21029;-71
2020/12/26 01:14:23;;;;;;;3.52;3.33;;;;;;;-0.42;100.00;99020.98;1792624;80;21571;-71
2020/12/26 01:16:51;;;;;;;4.62;4.20;;;;;;;-0.38;100.00;99018.79;1792596;80;22225;-71
2020/12/26 01:19:20;;;;;;;4.55;4.25;;;;;;;-0.37;100.00;99022.53;1789639;80;20944;-71
2020/12/26 01:21:52;;;;;;;4.70;4.30;;;;;;;-0.37;100.00;99021.21;1792568;80;25700;-71
2020/12/26 01:24:20;;;;;;;6.30;4.28;;;;;;;-0.39;100.00;99013.19;1792598;80;21071;-71
2020/12/26 01:26:51;;;;;;;4.20;3.90;;;;;;;-0.40;100.00;99022.93;1792828;80;21503;-72
2020/12/26 01:29:19;;;;;;;4.10;3.80;;;;;;;-0.42;100.00;99010.95;1792673;80;22497;-69
2020/12/26 01:31:51;;;;;;;5.25;4.20;;;;;;;-0.48;100.00;99017.31;1792832;80;21069;-69
2020/12/26 01:34:20;;;;;;;5.30;3.90;;;;;;;-0.51;100.00;99008.48;1792636;80;21629;-71
2020/12/26 01:36:50;;;;;;;4.33;4.03;;;;;;;-0.54;100.00;99006.73;1792339;80;21110;-71
2020/12/26 01:39:20;;;;;;;4.22;3.92;;;;;;;-0.57;100.00;99007.12;1792653;80;21047;-71
2020/12/26 01:41:51;;;;;;;5.20;4.70;;;;;;;-0.59;100.00;98999.91;1792543;80;21198;-71
2020/12/26 01:44:20;;;;;;;9.23;6.67;;;;;;;-0.63;100.00;98996.06;1792443;80;20992;-71
2020/12/26 01:46:51;;;;;;;6.67;6.05;;;;;;;-0.71;100.00;98990.41;1792630;80;21059;-71
2020/12/26 01:49:21;;;;;;;7.58;5.97;;;;;;;-0.77;100.00;98992.02;1792501;80;20933;-70
2020/12/26 01:51:51;;;;;;;4.83;4.37;;;;;;;-0.84;100.00;98989.84;1792522;80;21142;-70
2020/12/26 01:54:20;;;;;;;4.95;4.40;;;;;;;-0.88;100.00;98998.65;1792844;80;21628;-70
2020/12/26 01:56:49;;;;;;;4.75;4.35;;;;;;;-0.87;100.00;99002.09;1792504;80;21506;-71
2020/12/26 01:59:17;;;;;;;5.62;5.05;;;;;;;-0.86;100.00;99011.61;1792702;80;21082;-70
2020/12/26 02:01:45;;;;;;;7.25;5.53;;;;;;;-0.82;100.00;99012.06;1792373;80;21111;-71
2020/12/26 02:04:14;;;;;;;7.58;6.22;;;;;;;-0.85;100.00;99013.77;1792678;80;21019;-71
2020/12/26 02:06:52;;;;;;;6.10;5.33;;;;;;;-0.88;100.00;99018.92;1792531;80;22179;-72
2020/12/26 02:09:20;;;;;;;7.00;4.90;;;;;;;-0.91;100.00;99017.48;1792755;80;20946;-71
2020/12/26 02:11:50;;;;;;;6.80;5.20;;;;;;;-0.90;100.00;99023.56;1792530;80;21446;-72
2020/12/26 02:14:19;;;;;;;8.13;6.15;;;;;;;-0.90;100.00;99020.42;1792546;80;21216;-72
2020/12/26 02:16:58;;;;;;;11.70;7.47;;;;;;;-0.89;100.00;99022.03;1792774;80;21471;-71
2020/12/26 02:19:27;;;;;;;6.80;5.85;;;;;;;-0.87;100.00;99015.27;1795531;80;21204;-73
2020/12/26 02:21:55;;;;;;;12.07;6.25;;;;;;;-0.87;100.00;99020.54;1795345;80;21091;-73
2020/12/26 02:24:23;;;;;;;12.93;6.60;;;;;;;-0.86;100.00;99023.47;1792748;80;20992;-72
2020/12/26 02:26:51;;;;;;;12.45;7.72;;;;;;;-0.84;100.00;99013.55;1792605;80;21050;-71
2020/12/26 02:29:19;;;;;;;16.52;8.10;;;;;;;-0.84;100.00;99014.88;1792788;80;23072;-71
2020/12/26 02:31:48;;;;;;;11.38;6.97;;;;;;;-0.82;100.00;99018.64;1792799;80;21200;-71
2020/12/26 02:34:16;;;;;;;10.72;5.80;;;;;;;-0.82;100.00;99021.28;1792578;80;21119;-71
2020/12/26 02:36:44;;;;;;;9.40;5.62;;;;;;;-0.80;100.00;99020.59;1792547;80;20940;-71
2020/12/26 02:39:13;;;;;;;7.55;5.45;;;;;;;-0.78;100.00;99023.85;1792122;80;21581;-71
2020/12/26 02:41:49;;;;;;;8.35;5.70;;;;;;;-0.77;100.00;99032.05;1792673;80;21670;-71
2020/12/26 02:44:17;;;;;;;7.83;4.72;;;;;;;-0.77;100.00;99033.37;1792531;80;21283;-72
2020/12/26 02:46:51;;;;;;;6.17;4.75;;;;;;;-0.78;100.00;99024.66;1792674;80;21130;-71
2020/12/26 02:49:19;;;;;;;5.53;5.00;;;;;;;-0.79;100.00;99026.16;1792516;80;20928;-71
2020/12/26 02:51:47;;;;;;;5.05;4.60;;;;;;;-0.81;100.00;99023.70;1792628;80;20925;-71
2020/12/26 02:54:16;;;;;;;4.67;4.28;;;;;;;-0.85;100.00;99032.22;1792733;80;21122;-71
2020/12/26 02:56:44;;;;;;;5.58;4.60;;;;;;;-0.85;100.00;99032.22;1792456;80;21197;-71
2020/12/26 02:59:13;;;;;;;8.13;4.85;;;;;;;-0.87;100.00;99029.25;1792508;80;21182;-72
2020/12/26 03:01:41;;;;;;;7.47;5.70;;;;;;;-0.89;100.00;99023.86;1792514;80;21060;-71
2020/12/26 03:04:09;;;;;;;37.88;18.17;;;;;;;-0.93;100.00;99012.91;1792760;80;21475;-71
2020/12/26 03:06:37;;;;;;;29.65;15.72;;;;;;;-0.99;100.00;99020.25;1792659;80;21494;-72
2020/12/26 03:09:05;;;;;;;18.60;10.65;;;;;;;-1.07;100.00;99019.09;1792690;80;21668;-71
2020/12/26 03:11:34;;;;;;;;;;;;;;;-1.14;100.00;99020.85;1795090;80;21012;-71
2020/12/26 03:14:02;;;;;;;18.20;10.58;;;;;;;-1.17;100.00;99017.30;1792728;80;20497;-72
2020/12/26 03:16:31;;;;;;;11.45;7.58;;;;;;;-1.17;100.00;99022.56;1792482;80;21538;-71
2020/12/26 03:18:59;;;;;;;8.73;7.00;;;;;;;-1.19;100.00;99022.73;1792682;80;21514;-71
2020/12/26 03:21:27;;;;;;;8.20;5.60;;;;;;;-1.22;100.00;99028.91;1792699;80;21507;-72
2020/12/26 03:23:56;;;;;;;8.48;5.20;;;;;;;-1.28;100.00;99025.19;1792591;80;21000;-72
2020/12/26 03:26:24;;;;;;;5.00;4.50;;;;;;;-1.30;100.00;99024.08;1792531;80;21626;-71
2020/12/26 03:28:53;;;;;;;5.95;5.05;;;;;;;-1.33;100.00;99028.89;1792653;80;21198;-71
2020/12/26 03:31:21;;;;;;;6.22;4.58;;;;;;;-1.36;100.00;99036.67;1792537;80;21088;-71
2020/12/26 03:33:50;;;;;;;5.62;5.12;;;;;;;-1.36;100.00;99034.55;1792589;80;22759;-71
2020/12/26 03:36:18;;;;;;;6.83;5.58;;;;;;;-1.38;100.00;99038.67;1792602;80;20949;-70
2020/12/26 03:38:47;;;;;;;6.10;5.50;;;;;;;-1.37;100.00;99045.59;1792418;80;21486;-70
2020/12/26 03:41:24;;;;;;;5.40;4.90;;;;;;;-1.36;100.00;99043.76;1792552;80;21111;-71
2020/12/26 03:43:55;;;;;;;5.08;4.00;;;;;;;-1.36;100.00;99046.39;1792523;80;21122;-71
2020/12/26 03:46:24;;;;;;;5.12;4.70;;;;;;;-1.34;100.00;99039.94;1792418;80;21805;-71
2020/12/26 03:48:52;;;;;;;7.35;5.08;;;;;;;-1.34;100.00;99041.25;1792577;80;21585;-71
2020/12/26 03:51:22;;;;;;;4.85;4.42;;;;;;;-1.31;100.00;99036.11;1790163;80;21585;-70
2020/12/26 03:53:53;;;;;;;6.35;4.35;;;;;;;-1.28;100.00;99041.49;1792606;80;21074;-72
2020/12/26 03:56:21;;;;;;;4.53;4.12;;;;;;;-1.28;100.00;99040.18;1792457;80;21197;-71
2020/12/26 03:58:49;;;;;;;5.90;5.30;;;;;;;-1.30;100.00;99039.04;1792746;80;22217;-71
2020/12/26 04:01:18;;;;;;;5.03;4.62;;;;;;;-1.32;100.00;99035.30;1792483;80;21155;-71
2020/12/26 04:03:47;;;;;;;5.80;5.30;;;;;;;-1.32;100.00;99033.17;1792555;80;21047;-72
2020/12/26 04:06:17;;;;;;;6.97;4.65;;;;;;;-1.30;100.00;99037.72;1792689;80;21090;-71
2020/12/26 04:08:46;;;;;;;11.63;5.25;;;;;;;-1.32;100.00;99035.80;1792443;80;20980;-71
2020/12/26 04:11:15;;;;;;;5.78;5.28;;;;;;;-1.31;100.00;99044.00;1792535;80;21607;-71
2020/12/26 04:13:44;;;;;;;5.95;5.28;;;;;;;-1.32;100.00;99039.25;1792446;80;21020;-71
2020/12/26 04:16:14;;;;;;;5.33;4.83;;;;;;;-1.32;100.00;99051.61;1792538;80;21051;-71
2020/12/26 04:18:42;;;;;;;6.12;5.58;;;;;;;-1.32;100.00;99060.31;1792504;80;21054;-71
2020/12/26 04:21:12;;;;;;;5.30;4.83;;;;;;;-1.31;100.00;99061.13;1792525;80;20925;-70
2020/12/26 04:23:42;;;;;;;5.10;4.70;;;;;;;-1.33;100.00;99056.03;1792503;80;21736;-70
2020/12/26 04:26:10;;;;;;;6.97;5.22;;;;;;;-1.34;100.00;99054.92;1792572;80;21559;-71
2020/12/26 04:28:38;;;;;;;6.53;5.60;;;;;;;-1.36;100.00;99056.92;1792629;80;21493;-71
2020/12/26 04:31:09;;;;;;;10.32;6.90;;;;;;;-1.36;100.00;99064.83;1792428;80;20933;-71
2020/12/26 04:33:39;;;;;;;9.13;6.53;;;;;;;-1.37;100.00;99061.38;1792495;80;21059;-71
2020/12/26 04:36:07;;;;;;;12.18;6.33;;;;;;;-1.36;100.00;99067.45;1792395;80;21198;-70
2020/12/26 04:38:35;;;;;;;11.03;6.62;;;;;;;-1.35;100.00;99063.33;1788688;80;21154;-71
2020/12/26 04:41:03;;;;;;;11.03;7.17;;;;;;;-1.35;100.00;99060.70;1786899;80;21155;-71
2020/12/26 04:43:32;;;;;;;6.47;5.00;;;;;;;-1.33;100.00;99062.61;1786912;80;21060;-72
2020/12/26 04:46:00;;;;;;;6.30;5.58;;;;;;;-1.30;100.00;99065.37;1787079;80;21047;-71
2020/12/26 04:48:30;;;;;;;6.62;4.90;;;;;;;-1.32;100.00;99067.41;1786980;80;21659;-71
2020/12/26 04:51:03;;;;;;;5.70;4.92;;;;;;;-1.32;100.00;99077.94;1786847;80;21091;-71
2020/12/26 04:53:34;;;;;;;9.20;6.78;;;;;;;-1.30;100.00;99071.48;1786947;80;21539;-69
2020/12/26 04:56:04;;;;;;;5.05;4.62;;;;;;;-1.31;100.00;99079.05;1786922;80;20874;-69
2020/12/26 04:58:34;;;;;;;6.40;4.80;;;;;;;-1.30;100.00;99076.74;1787070;80;21141;-68
2020/12/26 05:01:05;;;;;;;5.45;4.83;;;;;;;-1.27;100.00;99083.45;1787068;80;21208;-69
2020/12/26 05:03:34;;;;;;;6.05;5.45;;;;;;;-1.26;100.00;99089.52;1786872;80;21000;-70
2020/12/26 05:06:04;;;;;;;7.30;5.05;;;;;;;-1.26;100.00;99083.75;1787303;80;21589;-69
2020/12/26 05:08:33;;;;;;;5.70;5.10;;;;;;;-1.25;100.00;99085.40;1787055;80;21612;-69
2020/12/26 05:11:03;;;;;;;5.97;5.17;;;;;;;-1.26;100.00;99077.16;1787242;80;20945;-69
2020/12/26 05:13:32;;;;;;;5.47;4.75;;;;;;;-1.25;100.00;99084.08;1787058;80;21222;-70
2020/12/26 05:16:01;;;;;;;8.88;6.05;;;;;;;-1.23;100.00;99084.68;1787136;80;21150;-69
2020/12/26 05:18:31;;;;;;;5.95;5.30;;;;;;;-1.21;100.00;99092.41;1787113;80;20932;-68
2020/12/26 05:21:00;;;;;;;6.03;5.53;;;;;;;-1.21;100.00;99095.84;1787667;80;21047;-70
2020/12/26 05:23:29;;;;;;;5.78;4.80;;;;;;;-1.21;100.00;99091.90;1789889;80;20913;-70
2020/12/26 05:25:59;;;;;;;5.42;4.92;;;;;;;-1.20;100.00;99090.07;1788902;80;24668;-69
2020/12/26 05:28:33;;;;;;;5.65;4.70;;;;;;;-1.20;100.00;99080.86;1786914;80;21071;-69
2020/12/26 05:31:06;;;;;;;8.33;5.58;;;;;;;-1.21;100.00;99082.67;1786979;80;21059;-70
2020/12/26 05:33:35;;;;;;;5.72;5.20;;;;;;;-1.22;100.00;99079.75;1786955;80;21095;-70
2020/12/26 05:36:05;;;;;;;;;;;;;;;-1.22;100.00;99079.75;1789679;80;21049;-71
2020/12/26 05:38:33;;;;;;;5.80;5.20;;;;;;;-1.21;100.00;99089.77;1789927;80;20511;-72
2020/12/26 05:41:02;;;;;;;13.05;7.17;;;;;;;-1.21;100.00;99081.36;1792606;80;21075;-72
2020/12/26 05:43:33;;;;;;;6.58;5.87;;;;;;;-1.19;100.00;99079.87;1792636;80;20925;-72
2020/12/26 05:46:02;;;;;;;9.40;6.85;;;;;;;-1.18;100.00;99082.80;1792543;80;20917;-71
2020/12/26 05:48:30;;;;;;;6.72;5.97;;;;;;;-1.18;100.00;99082.30;1792732;80;21610;-71
2020/12/26 05:51:00;;;;;;;6.80;6.10;;;;;;;-1.18;100.00;99086.24;1792718;80;21486;-71
2020/12/26 05:53:29;;;;;;;6.45;5.45;;;;;;;-1.17;100.00;99088.40;1792504;80;21024;-72
2020/12/26 05:55:59;;;;;;;9.93;6.00;;;;;;;-1.17;100.00;99097.11;1792610;80;20932;-70
2020/12/26 05:58:29;;;;;;;6.30;5.70;;;;;;;-1.17;100.00;99090.53;1792714;80;24758;-69
2020/12/26 06:00:59;;;;;;;8.95;6.42;;;;;;;-1.16;100.00;99096.09;1792551;80;21179;-69
2020/12/26 06:03:34;;;;;;;9.45;6.87;;;;;;;-1.14;100.00;99092.77;1739868;80;21452;-69
2020/12/26 06:06:05;;;;;;;7.17;5.97;;;;;;;-1.13;100.00;99103.64;1792504;80;20944;-70
2020/12/26 06:08:33;;;;;;;7.08;5.92;;;;;;;-1.13;100.00;99114.17;1792493;80;21118;-70
2020/12/26 06:11:06;;;;;;;9.25;8.05;;;;;;;-1.13;100.00;99114.17;1792567;80;21003;-71
2020/12/26 06:13:36;;;;;;;8.50;7.53;;;;;;;-1.10;100.00;99126.15;1792717;80;21103;-70
2020/12/26 06:16:21;;;;;;;11.83;8.33;;;;;;;-1.11;100.00;99122.67;1792440;80;22427;-71
2020/12/26 06:18:57;;;;;;;12.05;7.53;;;;;;;-1.09;100.00;99127.26;1792433;80;21008;-71
2020/12/26 06:21:26;;;;;;;8.00;6.90;;;;;;;-1.09;100.00;99131.20;1792376;80;21110;-70
2020/12/26 06:23:56;;;;;;;10.65;6.78;;;;;;;-1.08;100.00;99132.02;1792460;80;21146;-70
2020/12/26 06:26:26;;;;;;;8.95;6.78;;;;;;;-1.08;100.00;99138.60;1792597;80;21109;-70
2020/12/26 06:28:54;;;;;;;9.85;7.00;;;;;;;-1.07;100.00;99140.76;1792535;80;21207;-70
2020/12/26 06:31:23;;;;;;;8.83;6.67;;;;;;;-1.07;100.00;99144.71;1792578;80;26556;-71
2020/12/26 06:33:51;;;;;;;10.58;8.05;;;;;;;-1.04;100.00;99145.64;1792712;80;21078;-71
2020/12/26 06:36:20;;;;;;;15.13;8.55;;;;;;;-1.03;100.00;99145.95;1792713;80;20952;-71
2020/12/26 06:38:49;;;;;;;19.27;9.18;;;;;;;-1.02;100.00;99151.03;1788534;80;21122;-71
2020/12/26 06:41:18;;;;;;;11.70;7.75;;;;;;;-1.00;100.00;99149.03;1787015;80;25199;-70
2020/12/26 06:43:55;;;;;;;13.78;8.20;;;;;;;-0.99;100.00;99145.38;1786989;80;21000;-70
2020/12/26 06:46:34;;;;;;;10.55;8.30;;;;;;;-0.97;100.00;99137.30;1786933;80;21179;-70
2020/12/26 06:49:03;;;;;;;10.15;7.78;;;;;;;-0.96;100.00;99138.41;1789741;78;21152;-70
2020/12/26 06:51:38;;;;;;;11.20;8.58;;;;;;;-0.94;100.00;99148.77;1791447;78;22417;-70
2020/12/26 06:54:12;;;;;;;63.87;28.87;;;;;;;-0.92;100.00;99155.99;1774562;78;21772;-70
2020/12/26 06:56:45;;;;;;;111.35;48.63;;;;;;;-0.90;100.00;99161.38;1790543;78;21130;-71
2020/12/26 06:59:15;;;;;;;89.52;50.38;;;;;;;-0.87;100.00;99154.92;1791218;78;21012;-71
2020/12/26 07:01:46;;;;;;;36.08;25.32;;;;;;;-0.85;100.00;99152.91;1780021;78;21138;-71
2020/12/26 07:04:21;;;;;;;16.40;11.30;;;;;;;-0.81;100.00;99147.55;1791445;78;21154;-73
2020/12/26 07:06:53;;;;;;;11.05;8.10;;;;;;;-0.79;100.00;99154.78;1786822;80;21239;-71
2020/12/26 07:09:39;;;;;;;11.40;8.53;;;;;;;-0.77;100.00;99160.67;1750381;82;21066;-69
2020/12/26 07:14:57;;;;;;;14.50;10.67;;;;;;;-0.63;100.00;99158.17;1860227;74;38057;-69
2020/12/26 07:17:28;;;;;;;8.80;7.47;;;;;;;-0.62;100.00;99166.38;1825732;77;21194;-70
2020/12/26 07:20:32;;;;;;;8.93;7.35;;;;;;;-0.59;100.00;99172.58;1802927;77;21018;-69
2020/12/26 07:23:31;;;;;;;7.80;7.00;;;;;;;-0.57;100.00;99176.66;1768794;79;20943;-70
2020/12/26 07:26:00;;;;;;;8.33;6.28;;;;;;;-0.55;100.00;99187.02;1687604;84;21048;-70
2020/12/26 07:28:33;;;;;;;9.05;7.10;;;;;;;-0.56;100.00;99182.77;1732319;82;21004;-69
2020/12/26 07:31:18;;;;;;;12.15;7.58;;;;;;;-0.57;100.00;99183.23;1675037;82;21209;-70
2020/12/26 07:33:46;;;;;;;11.83;8.03;;;;;;;-0.55;100.00;99192.29;1728168;82;21191;-70
2020/12/26 07:36:35;;;;;;;12.88;6.75;;;;;;;-0.55;100.00;99194.41;1730111;82;21007;-71
2020/12/26 07:39:03;;;;;;;10.98;7.28;;;;;;;-0.54;100.00;99199.18;1692664;83;21029;-72
2020/12/26 07:41:33;;;;;;;10.13;6.85;;;;;;;-0.54;100.00;99209.25;1704573;83;21043;-71
2020/12/26 07:44:01;;;;;;;15.70;8.65;;;;;;;-0.53;100.00;99206.10;1730717;82;21260;-71
2020/12/26 07:46:30;;;;;;;13.58;8.93;;;;;;;-0.51;100.00;99208.86;1729871;82;21362;-71
2020/12/26 07:48:58;;;;;;;16.70;11.10;;;;;;;-0.49;100.00;99207.33;1730645;82;21196;-71
2020/12/26 07:51:26;;;;;;;25.37;16.25;;;;;;;-0.46;100.00;99201.70;1732351;82;21185;-70
2020/12/26 07:53:58;;;;;;;25.95;15.05;;;;;;;-0.42;100.00;99204.76;1721778;82;21672;-70
2020/12/26 07:56:29;;;;;;;13.78;9.23;;;;;;;-0.41;100.00;99205.90;1730413;82;21130;-70
2020/12/26 07:59:00;;;;;;;18.35;10.00;;;;;;;-0.39;100.00;99205.20;1728379;80;21179;-72
2020/12/26 08:01:29;;;;;;;10.90;6.47;;;;;;;-0.35;100.00;99206.44;1788031;79;20963;-70
2020/12/26 08:04:03;;;;;;;12.40;8.48;;;;;;;-0.34;100.00;99194.89;1780336;80;21755;-70
2020/12/26 08:06:33;;;;;;;12.18;9.23;;;;;;;-0.30;100.00;99194.00;1783632;80;21165;-70
2020/12/26 08:09:08;;;;;;;12.43;7.70;;;;;;;-0.26;100.00;99200.02;1786931;79;21007;-70
2020/12/26 08:11:36;;;;;;;15.48;9.00;;;;;;;-0.21;100.00;99203.41;1783624;79;21081;-70
2020/12/26 08:14:04;;;;;;;10.58;7.90;;;;;;;-0.18;100.00;99207.47;1782935;80;21161;-72
2020/12/26 08:16:34;;;;;;;7.53;6.03;;;;;;;-0.15;100.00;99213.68;1781424;80;21015;-71
2020/12/26 08:19:04;;;;;;;14.68;8.55;;;;;;;-0.12;100.00;99211.48;1813365;79;20983;-70
2020/12/26 08:21:33;;;;;;;10.08;8.53;;;;;;;-0.08;100.00;99211.39;1779806;80;21006;-71
2020/12/26 08:24:03;;;;;;;10.35;8.98;;;;;;;-0.06;100.00;99207.25;1813634;79;21316;-71
2020/12/26 08:26:33;;;;;;;10.93;8.63;;;;;;;-0.06;100.00;99204.62;1812842;79;21058;-71
2020/12/26 08:29:04;;;;;;;11.55;8.18;;;;;;;-0.03;100.00;99205.03;1815928;79;21149;-70
2020/12/26 08:31:33;;;;;;;12.00;7.80;;;;;;;0.03;100.00;99203.97;1787376;79;20987;-71
2020/12/26 08:34:13;;;;;;;12.37;9.25;;;;;;;0.07;100.00;99201.23;1813054;79;21031;-71
2020/12/26 08:36:48;;;;;;;10.10;8.08;;;;;;;0.11;100.00;99192.73;1813000;79;21673;-72
2020/12/26 08:39:17;;;;;;;13.95;9.80;;;;;;;0.16;100.00;99185.56;1812403;78;21498;-73
2020/12/26 08:41:46;;;;;;;60.08;32.60;;;;;;;0.21;100.00;99191.88;1752823;81;21041;-73
2020/12/26 08:44:14;;;;;;;8.15;7.00;;;;;;;0.28;100.00;99187.95;1785721;80;20989;-73
2020/12/26 08:46:47;;;;;;;11.50;8.83;;;;;;;0.29;100.00;99187.45;1758075;81;20976;-71
2020/12/26 08:49:15;;;;;;;11.95;8.10;;;;;;;0.34;100.00;99196.91;1785534;80;21362;-71
2020/12/26 08:51:44;;;;;;;10.88;8.43;;;;;;;0.37;100.00;99188.11;1785651;80;20946;-72
2020/12/26 08:54:21;;;;;;;13.18;8.60;;;;;;;0.40;100.00;99194.31;1757952;81;21025;-71
2020/12/26 08:56:50;;;;;;;12.68;7.90;;;;;;;0.42;100.00;99195.45;1785565;80;20916;-71
2020/12/26 08:59:29;;;;;;;12.60;10.03;;;;;;;0.45;100.00;99202.16;1785699;80;21476;-71
2020/12/26 09:01:58;;;;;;;11.38;9.45;;;;;;;0.50;100.00;99202.38;1758141;81;25197;-72
2020/12/26 09:04:30;;;;;;;12.13;8.85;;;;;;;0.52;100.00;99205.12;1785602;80;21009;-72
2020/12/26 09:07:00;;;;;;;11.35;8.38;;;;;;;0.52;100.00;99214.38;1785541;80;20958;-73
2020/12/26 09:09:29;;;;;;;13.10;9.38;;;;;;;0.53;100.00;99223.11;1757938;81;21116;-71
2020/12/26 09:12:03;;;;;;;14.28;10.38;;;;;;;0.58;100.00;99219.36;1755423;80;21063;-74
2020/12/26 09:14:33;;;;;;;12.53;9.23;;;;;;;0.64;100.00;99216.76;1790997;80;21233;-71
2020/12/26 09:17:02;;;;;;;12.58;9.13;;;;;;;0.71;100.00;99225.20;1794467;79;20941;-71
2020/12/26 09:19:45;;;;;;;14.78;9.75;;;;;;;0.74;100.00;99224.83;1794339;79;21137;-70
2020/12/26 09:22:13;;;;;;;10.78;8.10;;;;;;;0.78;100.00;99233.97;1794394;80;21046;-71
2020/12/26 09:24:41;;;;;;;11.45;8.75;;;;;;;0.74;100.00;99241.48;1794725;80;21142;-72
2020/12/26 09:27:23;;;;;;;8.68;7.58;;;;;;;0.75;100.00;99243.61;1794467;80;21472;-70
2020/12/26 09:30:04;;;;;;;10.60;7.62;;;;;;;0.75;100.00;99246.26;1794262;80;21126;-71
2020/12/26 09:32:33;;;;;;;10.43;7.62;;;;;;;0.69;100.00;99256.30;1794436;80;21063;-72
2020/12/26 09:35:04;;;;;;;13.60;9.18;;;;;;;0.66;100.00;99258.80;1794670;80;26420;-72
2020/12/26 09:37:33;;;;;;;13.22;9.23;;;;;;;0.64;100.00;99251.09;1787554;80;21011;-71
2020/12/26 09:40:01;;;;;;;13.88;7.97;;;;;;;0.69;100.00;99257.62;1794534;80;25752;-71
2020/12/26 09:42:30;;;;;;;11.45;7.75;;;;;;;0.70;100.00;99252.64;1794353;80;20932;-71
2020/12/26 09:45:00;;;;;;;11.43;9.05;;;;;;;0.71;100.00;99247.17;1794431;80;20936;-70
2020/12/26 09:47:29;;;;;;;23.52;16.02;;;;;;;0.74;100.00;99252.05;1794444;80;21573;-70
2020/12/26 09:49:57;;;;;;;13.08;8.30;;;;;;;0.72;100.00;99253.27;1794598;79;20932;-71
2020/12/26 09:52:25;;;;;;;24.20;13.83;;;;;;;0.68;100.00;99245.41;1794507;80;21204;-71
2020/12/26 09:54:53;;;;;;;13.43;7.80;;;;;;;0.66;100.00;99261.96;1804959;78;21565;-74
2020/12/26 09:57:22;;;;;;;12.90;9.18;;;;;;;0.63;100.00;99259.20;1827166;78;21574;-73
2020/12/26 09:59:52;;;;;;;8.50;7.05;;;;;;;0.66;100.00;99259.31;1824639;77;21807;-72
2020/12/26 10:02:29;;;;;;;8.55;7.08;;;;;;;0.69;100.00;99258.95;1823302;77;21182;-72
2020/12/26 10:04:57;;;;;;;9.80;8.55;;;;;;;0.72;100.00;99262.00;1825606;78;21200;-71
2020/12/26 10:07:26;;;;;;;9.30;6.22;;;;;;;0.73;100.00;99259.66;1825459;78;21130;-72
2020/12/26 10:10:03;;;;;;;11.55;8.35;;;;;;;0.75;100.00;99268.72;1823602;78;21047;-72
2020/12/26 10:12:31;;;;;;;7.97;6.08;;;;;;;0.84;100.00;99260.94;1807056;78;21118;-72
2020/12/26 10:19:23;;;;;;;11.10;7.00;;;;;;;0.92;100.00;99272.64;1774137;76;21527;-74
2020/12/26 10:31:05;;;;;;;9.38;7.08;;;;;;;0.90;100.00;99277.30;1621418;88;21808;-72
2020/12/26 10:33:33;;;;;;;9.90;8.50;;;;;;;0.88;100.00;99281.97;1616305;88;21225;-73
2020/12/26 10:46:49;;;;;;;10.93;8.40;;;;;;;0.95;100.00;99299.17;1602595;89;21334;-72
2020/12/26 10:49:24;;;;;;;10.35;8.08;;;;;;;1.06;100.00;99292.02;1851276;77;22658;-72
2020/12/26 10:51:53;;;;;;;11.63;7.83;;;;;;;1.04;100.00;99299.32;1748440;82;21455;-71
2020/12/26 10:54:21;;;;;;;13.18;8.03;;;;;;;1.07;100.00;99302.88;1819363;78;21199;-71
2020/12/26 11:00:31;;;;;;;9.78;7.17;;;;;;;0.99;100.00;99300.42;1806823;78;21562;-71
2020/12/26 11:03:08;;;;;;;10.85;7.80;;;;;;;0.99;100.00;99305.70;1797879;78;21018;-72
2020/12/26 11:05:44;;;;;;;11.65;8.30;;;;;;;1.03;100.00;99311.73;1818957;78;20987;-71
2020/12/26 11:17:02;;;;;;;11.03;7.37;;;;;;;0.97;100.00;99316.98;1800103;78;20930;-71
2020/12/26 11:20:14;;;;;;;9.98;7.22;;;;;;;0.96;100.00;99312.20;1673741;85;21172;-72
2020/12/26 11:24:05;;;;;;;;;;;;;;;;;;;;;
2020/12/26 11:42:46;;;;;;;8.83;5.70;;;;;;;0.70;100.00;99286.98;1792303;79;22724;-72
2020/12/26 12:14:35;;;;;;;23.05;13.68;;;;;;;0.61;100.00;99273.95;1715837;81;22444;-71
2020/12/26 12:17:09;;;;;;;8.00;6.35;;;;;;;0.52;100.00;99272.47;1714157;82;21592;-72
2020/12/26 12:19:38;;;;;;;9.98;6.90;;;;;;;0.51;100.00;99277.94;1692124;84;21375;-73
2020/12/26 12:22:14;;;;;;;9.98;7.22;;;;;;;0.49;100.00;99275.99;1708915;83;21683;-71
2020/12/26 12:24:43;;;;;;;7.85;6.45;;;;;;;0.49;100.00;99278.63;1718767;82;21110;-71
2020/12/26 12:27:11;;;;;;;9.10;7.05;;;;;;;0.47;100.00;99265.64;1723774;83;21070;-72
2020/12/26 12:29:41;;;;;;;9.38;6.62;;;;;;;0.49;100.00;99271.55;1717391;82;21153;-73
2020/12/26 12:32:15;;;;;;;12.05;7.30;;;;;;;0.46;100.00;99270.59;1720282;82;21982;-71
2020/12/26 12:34:44;;;;;;;12.93;8.75;;;;;;;0.45;100.00;99281.38;1707045;83;21564;-73
2020/12/26 12:37:13;;;;;;;9.23;8.03;;;;;;;0.43;100.00;99273.12;1706087;82;21025;-73
2020/12/26 17:51:40;;;;;;;15.40;9.38;;;;;;;0.43;100.00;99277.59;1637232;83;21221;-72
2020/12/26 17:54:26;;;;;;;;;;;;;;;;;;;;;
2020/12/26 17:57:09;;;;;;;16.42;10.30;;;;;;;-1.20;100.00;99572.88;1776226;80;27954;-72
2020/12/26 18:00:19;;;;;;;15.00;9.75;;;;;;;-1.23;100.00;99573.71;1751092;81;21034;-72
2020/12/26 18:06:30;;;;;;;13.45;9.08;;;;;;;-1.21;100.00;99567.78;1712834;83;21072;-73
2020/12/26 18:09:53;;;;;;;15.32;9.48;;;;;;;-1.19;100.00;99561.84;1635112;86;21639;-72
2020/12/26 18:12:22;;;;;;;11.48;8.20;;;;;;;-1.16;100.00;99573.33;1631917;87;21220;-73
2020/12/26 18:14:57;;;;;;;7.80;6.80;;;;;;;-1.13;100.00;99580.39;1634759;87;21216;-73
2020/12/26 18:37:56;;;;;;;5.72;5.20;;;;;;;-1.11;100.00;99605.23;1650471;86;21164;-72
2020/12/26 18:40:53;;;;;;;5.70;5.20;;;;;;;-1.13;100.00;99609.84;1640639;86;21236;-73
2020/12/26 18:59:12;;;;;;;5.97;5.47;;;;;;;-1.18;100.00;99634.58;1666094;82;21541;-72
2020/12/26 19:02:13;;;;;;;;;;;;;;;;;;;;;
2020/12/26 19:31:10;;;;;;;12.55;6.95;;;;;;;-1.13;100.00;99661.21;1718612;77;29305;-73